Time;durP1;ratioP1;P1;durP2;ratioP2;P2;SDS_P1;SDS_P2;PMS_P1;PMS_P2;Temp;Humidity;BMP_temperature;BMP_pressure;BME280_temperature;BME280_humidity;BME280_pressure;Samples;Min_cycle;Max_cycle;Signal;HPM_P1;HPM_P2
2023/07/06 00:01:26;;;;;;;8.38;5.57;;;;;;;17.06;65.82;101454.63;5064453;28;20086;-73
2023/07/06 00:03:54;;;;;;;14.10;5.93;;;;;;;17.05;66.01;101454.91;5071657;28;20017;-73
2023/07/06 00:06:20;;;;;;;9.40;5.38;;;;;;;17.00;65.39;101450.16;5060212;28;20032;-73
2023/07/06 00:08:45;;;;;;;10.43;5.57;;;;;;;16.93;65.96;101453.22;5070722;28;20035;-73
2023/07/06 00:11:10;;;;;;;8.10;5.00;;;;;;;16.92;65.83;101448.75;5071590;28;20039;-73
2023/07/06 00:13:38;;;;;;;8.30;5.25;;;;;;;16.95;65.80;101452.13;5061409;28;20424;-73
2023/07/06 00:16:04;;;;;;;9.25;5.38;;;;;;;16.91;65.50;101457.44;5051260;28;20106;-72
2023/07/06 00:18:30;;;;;;;7.47;4.93;;;;;;;16.90;65.47;101453.81;5051759;28;20032;-73
2023/07/06 00:20:57;;;;;;;6.93;4.55;;;;;;;16.96;64.95;101451.00;5060059;28;20028;-73
2023/07/06 00:23:23;;;;;;;7.97;4.63;;;;;;;16.87;65.23;101450.72;5060639;28;20415;-73
2023/07/06 00:25:49;;;;;;;10.10;5.18;;;;;;;16.85;65.25;101450.16;5061793;28;20028;-73
2023/07/06 00:28:17;;;;;;;10.02;4.88;;;;;;;16.79;65.22;101448.47;5071219;28;20468;-73
2023/07/06 00:33:11;;;;;;;7.80;4.80;;;;;;;16.73;65.42;101450.44;5084023;28;20045;-73
2023/07/06 00:35:39;;;;;;;8.07;4.75;;;;;;;16.73;65.14;101444.81;5052210;28;20476;-72
2023/07/06 00:38:09;;;;;;;6.78;4.80;;;;;;;16.75;65.09;101444.56;5051843;28;20443;-73
2023/07/06 00:40:38;;;;;;;7.47;4.43;;;;;;;16.73;65.38;101458.84;5062105;28;20035;-73
2023/07/06 00:43:04;;;;;;;7.68;4.88;;;;;;;16.70;65.36;101459.34;5059739;28;20025;-72
2023/07/06 00:45:30;;;;;;;5.18;4.28;;;;;;;16.67;65.07;101451.53;5070901;28;20476;-73
2023/07/06 00:47:59;;;;;;;7.68;4.40;;;;;;;16.68;64.77;101461.63;5051731;28;20024;-73
2023/07/06 00:50:29;;;;;;;8.35;4.22;;;;;;;16.63;64.85;101459.66;5050005;28;20025;-73
2023/07/06 00:53:02;;;;;;;5.85;4.05;;;;;;;16.62;65.21;101455.19;5051516;28;20029;-72
2023/07/06 00:55:32;;;;;;;9.85;4.30;;;;;;;16.60;64.96;101450.97;5071169;28;20036;-73
2023/07/06 00:58:09;;;;;;;7.85;4.10;;;;;;;16.68;64.88;101448.44;5064515;28;20043;-73
2023/07/06 01:00:39;;;;;;;8.15;3.70;;;;;;;16.65;64.73;101453.75;5070523;28;20134;-73
2023/07/06 01:03:07;;;;;;;5.50;3.78;;;;;;;16.65;64.37;101453.75;5089365;28;20692;-73
2023/07/06 01:05:33;;;;;;;7.72;4.28;;;;;;;16.59;64.25;101454.88;5070859;28;20025;-73
2023/07/06 01:08:07;;;;;;;7.82;4.20;;;;;;;16.52;64.89;101454.31;5071193;28;20028;-73
2023/07/06 01:10:34;;;;;;;7.82;4.03;;;;;;;16.52;64.70;101451.50;5053880;28;20021;-73
2023/07/06 01:13:01;;;;;;;6.05;3.85;;;;;;;16.48;64.52;101447.59;5060738;28;20047;-73
2023/07/06 01:15:34;;;;;;;6.13;3.45;;;;;;;16.52;64.43;101454.31;5067110;28;20044;-73
2023/07/06 01:18:35;;;;;;;6.32;3.90;;;;;;;16.50;64.66;101446.16;5064474;28;20036;-73
2023/07/06 01:21:11;;;;;;;8.63;3.70;;;;;;;16.50;64.20;101451.78;5056411;28;20090;-73
2023/07/06 01:23:43;;;;;;;6.88;3.67;;;;;;;16.54;64.10;101460.47;5069467;28;20033;-73
2023/07/06 01:26:42;;;;;;;5.93;3.47;;;;;;;16.57;64.04;101454.31;5070183;28;20024;-73
2023/07/06 01:29:41;;;;;;;9.15;3.70;;;;;;;16.50;64.23;101456.53;5064340;28;20039;-73
2023/07/06 01:32:14;;;;;;;7.38;3.70;;;;;;;16.42;64.06;101458.78;5071227;28;20083;-73
2023/07/06 01:34:47;;;;;;;7.05;3.60;;;;;;;16.32;64.58;101453.16;5050725;28;20120;-73
2023/07/06 01:37:35;;;;;;;8.10;3.60;;;;;;;16.26;64.77;101459.03;5051268;28;20029;-73
2023/07/06 01:40:01;;;;;;;6.82;3.63;;;;;;;16.32;64.49;101455.97;5050786;28;20037;-73
2023/07/06 01:42:29;;;;;;;9.63;3.33;;;;;;;16.28;64.29;101451.19;5060744;28;20089;-73
2023/07/06 01:45:00;;;;;;;7.03;3.15;;;;;;;16.23;64.43;101460.44;5068216;28;20105;-73
2023/07/06 01:47:28;;;;;;;6.30;3.58;;;;;;;16.22;64.50;101453.13;5060988;28;20103;-73
2023/07/06 01:49:55;;;;;;;5.85;3.70;;;;;;;16.27;64.36;101458.75;5064885;28;20024;-73
2023/07/06 01:52:27;;;;;;;6.90;3.15;;;;;;;16.23;64.35;101457.63;5070911;28;20028;-73
2023/07/06 01:55:20;;;;;;;7.10;3.30;;;;;;;16.24;64.43;101459.31;5070476;28;20043;-72
2023/07/06 01:58:04;;;;;;;6.70;4.00;;;;;;;16.17;64.26;101453.97;5067518;28;20379;-72
2023/07/06 02:00:31;;;;;;;5.75;3.20;;;;;;;16.12;64.21;101458.72;5071398;28;20033;-72
2023/07/06 02:02:59;;;;;;;8.45;3.65;;;;;;;16.01;64.39;101465.41;5070981;28;20102;-72
2023/07/06 02:05:26;;;;;;;8.02;3.47;;;;;;;16.12;64.29;101472.72;5071595;28;20394;-72
2023/07/06 02:07:52;;;;;;;5.85;3.58;;;;;;;16.12;64.62;101462.34;5060329;28;20372;-73
2023/07/06 02:10:19;;;;;;;10.00;3.55;;;;;;;16.10;64.66;101467.38;5054709;28;20033;-73
2023/07/06 02:12:47;;;;;;;7.20;3.28;;;;;;;16.07;64.29;101469.88;5068723;28;20776;-73
2023/07/06 02:15:19;;;;;;;6.20;3.38;;;;;;;16.03;64.39;101460.34;5074769;28;20067;-72
2023/07/06 02:17:46;;;;;;;6.93;3.72;;;;;;;16.08;64.38;101460.38;5064320;28;20499;-72
2023/07/06 02:20:12;;;;;;;7.03;3.65;;;;;;;16.03;64.34;101463.16;5070097;28;20016;-73
2023/07/06 02:22:39;;;;;;;7.45;3.08;;;;;;;15.95;64.68;101458.94;5070266;28;20098;-73
2023/07/06 02:25:06;;;;;;;9.40;3.38;;;;;;;16.00;64.54;101455.31;5074301;28;20028;-73
2023/07/06 02:27:32;;;;;;;6.60;3.65;;;;;;;16.03;64.30;101457.56;5065154;28;20017;-72
2023/07/06 02:29:59;;;;;;;8.30;3.65;;;;;;;15.98;64.37;101455.59;5065545;28;20094;-72
2023/07/06 02:32:25;;;;;;;8.25;3.97;;;;;;;15.98;64.44;101451.94;5072653;28;20472;-73
2023/07/06 02:34:50;;;;;;;6.63;3.50;;;;;;;15.96;64.64;101452.22;5071546;28;20064;-73
2023/07/06 02:37:15;;;;;;;5.75;3.45;;;;;;;15.93;64.49;101447.16;5069844;28;20425;-73
2023/07/06 02:39:41;;;;;;;9.90;3.95;;;;;;;15.98;64.23;101455.59;5059342;28;20029;-73
2023/07/06 02:42:07;;;;;;;9.80;3.83;;;;;;;15.88;64.67;101455.56;5052369;28;20036;-73
2023/07/06 02:44:33;;;;;;;8.73;3.88;;;;;;;15.83;64.35;101447.97;5054169;28;20039;-73
2023/07/06 02:46:58;;;;;;;7.13;3.40;;;;;;;15.76;64.68;101454.94;5060083;28;20465;-73
2023/07/06 02:49:23;;;;;;;8.07;3.47;;;;;;;15.74;65.10;101449.63;5052764;28;20537;-73
2023/07/06 02:51:49;;;;;;;7.22;2.95;;;;;;;15.79;64.98;101452.41;5064372;28;20083;-73
2023/07/06 02:54:15;;;;;;;7.82;3.90;;;;;;;15.75;65.26;101451.28;5055474;28;20031;-73
2023/07/06 02:56:44;;;;;;;6.80;3.17;;;;;;;15.78;65.00;101456.34;5069666;28;20421;-73
2023/07/06 02:59:10;;;;;;;6.85;3.20;;;;;;;15.84;64.95;101460.03;5066936;28;20032;-73
2023/07/06 03:01:36;;;;;;;8.88;3.72;;;;;;;15.82;64.91;101451.88;5063909;28;20021;-73
2023/07/06 03:04:09;;;;;;;9.40;3.53;;;;;;;15.77;64.65;101463.06;5066804;28;20075;-72
2023/07/06 03:06:34;;;;;;;8.90;3.95;;;;;;;15.74;64.99;101462.78;5072030;28;20384;-73
2023/07/06 03:09:00;;;;;;;9.00;3.30;;;;;;;15.78;65.05;101461.09;5073120;28;20035;-73
2023/07/06 03:11:25;;;;;;;7.50;3.38;;;;;;;15.72;65.15;101463.06;5064359;28;20059;-73
2023/07/06 03:13:51;;;;;;;9.35;3.88;;;;;;;15.77;65.08;101463.06;5062257;28;20487;-73
2023/07/06 03:16:16;;;;;;;9.90;3.95;;;;;;;15.79;65.16;101463.63;5056977;28;20119;-73
2023/07/06 03:18:43;;;;;;;7.93;3.72;;;;;;;15.82;64.84;101471.47;5072513;28;20021;-73
2023/07/06 03:21:11;;;;;;;9.23;3.58;;;;;;;15.77;64.89;101463.06;5062808;28;20033;-73
2023/07/06 03:23:36;;;;;;;14.98;3.88;;;;;;;15.82;64.94;101474.28;5053028;28;20025;-73
2023/07/06 03:26:02;;;;;;;10.93;4.05;;;;;;;15.79;64.94;101474.81;5052901;28;20465;-73
2023/07/06 03:28:28;;;;;;;10.13;3.90;;;;;;;15.72;65.07;101477.03;5061123;28;20032;-72
2023/07/06 03:30:56;;;;;;;7.88;3.60;;;;;;;15.75;64.93;101476.47;5068814;28;20040;-72
2023/07/06 03:33:21;;;;;;;11.85;3.80;;;;;;;15.75;65.12;101479.28;5070594;28;20047;-72
2023/07/06 03:35:46;;;;;;;7.43;3.75;;;;;;;15.76;65.15;101480.97;5071608;28;20468;-72
2023/07/06 03:38:12;;;;;;;10.95;3.55;;;;;;;15.71;65.52;101492.13;5052347;28;20811;-72
2023/07/06 03:40:38;;;;;;;10.20;3.63;;;;;;;15.73;65.06;101486.28;5053301;28;20768;-72
2023/07/06 03:43:04;;;;;;;9.70;4.07;;;;;;;15.77;65.33;101485.47;5067184;28;20078;-72
2023/07/06 03:45:30;;;;;;;8.77;3.70;;;;;;;15.70;65.02;101485.69;5065013;28;20032;-73
2023/07/06 03:47:56;;;;;;;7.40;3.85;;;;;;;15.75;65.25;101492.44;5052154;28;20028;-72
2023/07/06 03:50:21;;;;;;;8.70;3.88;;;;;;;15.79;65.25;101488.81;5054090;28;20491;-72
2023/07/06 03:52:48;;;;;;;11.02;3.97;;;;;;;15.74;65.39;101494.41;5072697;28;20101;-73
2023/07/06 03:55:20;;;;;;;8.75;3.67;;;;;;;15.69;65.02;101492.41;5072477;28;20032;-73
2023/07/06 03:57:47;;;;;;;7.22;3.33;;;;;;;15.70;65.23;101499.69;5060995;28;20032;-72
2023/07/06 04:00:19;;;;;;;12.30;4.45;;;;;;;15.67;65.26;101500.22;5070769;28;20024;-73
2023/07/06 04:02:47;;;;;;;9.70;4.45;;;;;;;15.73;65.24;101506.72;5054972;28;20072;-72
2023/07/06 04:05:12;;;;;;;13.57;4.32;;;;;;;15.72;64.83;101507.84;5068351;28;20047;-72
2023/07/06 04:07:38;;;;;;;12.50;4.63;;;;;;;15.67;65.17;101505.81;5065334;28;20365;-72
2023/07/06 04:10:05;;;;;;;8.73;3.72;;;;;;;15.63;65.29;101509.41;5071962;28;20028;-73
2023/07/06 04:12:32;;;;;;;10.32;4.28;;;;;;;15.67;65.39;101510.59;5072342;28;20032;-72
2023/07/06 04:14:58;;;;;;;14.07;5.07;;;;;;;15.58;65.50;101513.03;5065302;28;20114;-73
2023/07/06 04:17:23;;;;;;;11.65;4.63;;;;;;;15.55;65.60;101507.97;5062746;28;20029;-73
2023/07/06 04:19:53;;;;;;;8.90;4.00;;;;;;;15.60;65.73;101513.63;5059020;28;20032;-72
2023/07/06 04:22:19;;;;;;;9.52;4.13;;;;;;;15.68;65.51;101513.13;5062419;28;20028;-72
2023/07/06 04:24:44;;;;;;;9.82;4.30;;;;;;;15.60;65.43;101516.41;5051476;28;20036;-72
2023/07/06 04:27:09;;;;;;;11.32;4.63;;;;;;;15.59;65.42;101513.88;5050519;28;20032;-72
2023/07/06 04:29:35;;;;;;;9.07;4.18;;;;;;;15.61;65.67;101508.84;5057024;28;20036;-73
2023/07/06 04:32:01;;;;;;;9.98;4.18;;;;;;;15.61;65.86;101520.03;5064840;28;20040;-72
2023/07/06 04:34:26;;;;;;;13.57;4.72;;;;;;;15.55;66.25;101515.53;5051430;28;20476;-72
2023/07/06 04:36:51;;;;;;;12.85;4.38;;;;;;;15.60;65.97;101515.53;5054522;28;20028;-72
2023/07/06 04:39:16;;;;;;;11.70;4.60;;;;;;;15.64;66.01;101528.75;5056212;28;20031;-72
2023/07/06 04:41:44;;;;;;;11.93;4.65;;;;;;;15.63;66.49;101527.03;5069574;28;20025;-72
2023/07/06 04:44:11;;;;;;;9.65;4.43;;;;;;;15.62;66.09;101530.13;5071259;28;20464;-72
2023/07/06 04:46:36;;;;;;;11.05;4.70;;;;;;;15.67;65.98;101530.19;5071856;28;20035;-72
2023/07/06 04:49:02;;;;;;;11.07;4.80;;;;;;;15.66;66.55;101534.09;5066878;28;20029;-73
2023/07/06 04:51:28;;;;;;;10.30;4.75;;;;;;;15.61;66.46;101539.63;5070709;28;20067;-73
2023/07/06 04:53:53;;;;;;;10.93;4.70;;;;;;;15.67;66.47;101532.97;5068747;28;20044;-73
2023/07/06 04:56:19;;;;;;;10.85;4.70;;;;;;;15.69;66.51;101533.56;5058360;28;20430;-74
2023/07/06 04:58:45;;;;;;;13.45;5.10;;;;;;;15.70;66.86;101533.28;5061019;28;20032;-72
2023/07/06 05:01:10;;;;;;;13.55;5.10;;;;;;;15.74;66.50;101527.13;5060406;28;20047;-72
2023/07/06 05:03:36;;;;;;;14.40;5.50;;;;;;;15.73;67.00;101531.06;5055307;28;20060;-72
2023/07/06 05:06:05;;;;;;;11.25;5.60;;;;;;;15.74;66.99;101536.38;5053178;28;20388;-73
2023/07/06 05:08:31;;;;;;;13.35;5.53;;;;;;;15.76;67.11;101541.69;5069233;28;20029;-72
2023/07/06 05:10:57;;;;;;;17.00;5.88;;;;;;;15.75;67.18;101535.25;5066928;28;20070;-73
2023/07/06 05:13:23;;;;;;;12.18;5.32;;;;;;;15.78;66.86;101540.31;5054961;28;20477;-73
2023/07/06 05:15:49;;;;;;;12.43;5.45;;;;;;;15.73;67.22;101548.69;5053678;28;20864;-72
2023/07/06 05:18:18;;;;;;;12.70;6.20;;;;;;;15.81;67.24;101538.94;5051325;28;20058;-73
2023/07/06 05:20:43;;;;;;;16.70;6.40;;;;;;;15.85;67.22;101540.91;5050643;28;20051;-72
2023/07/06 05:23:11;;;;;;;16.00;6.85;;;;;;;15.85;67.38;101540.09;5053937;28;20468;-72
2023/07/06 05:25:36;;;;;;;15.02;6.93;;;;;;;15.88;67.29;101540.38;5063736;28;20111;-72
2023/07/06 05:28:02;;;;;;;15.52;6.30;;;;;;;15.84;67.72;101544.84;5051547;28;20035;-73
2023/07/06 05:30:28;;;;;;;16.45;7.05;;;;;;;15.85;67.68;101546.53;5064226;28;20040;-72
2023/07/06 05:32:54;;;;;;;16.38;6.85;;;;;;;15.83;68.26;101543.13;5060585;28;20040;-72
2023/07/06 05:35:22;;;;;;;18.30;7.57;;;;;;;15.90;68.20;101546.53;5069060;28;20029;-73
2023/07/06 05:37:48;;;;;;;19.02;7.05;;;;;;;15.94;68.26;101544.88;5084301;28;20032;-73
2023/07/06 05:40:14;;;;;;;17.42;7.70;;;;;;;15.90;68.26;101543.75;5058712;28;20176;-74
2023/07/06 05:42:40;;;;;;;17.95;7.43;;;;;;;15.96;68.32;101553.03;5050396;28;20500;-74
2023/07/06 05:45:07;;;;;;;17.75;8.20;;;;;;;16.00;67.83;101556.13;5052838;28;20130;-75
2023/07/06 05:47:33;;;;;;;18.48;7.53;;;;;;;16.04;68.37;101554.47;5068383;28;20028;-73
2023/07/06 05:49:58;;;;;;;23.52;8.68;;;;;;;16.01;68.29;101555.00;5069662;28;20564;-75
2023/07/06 05:52:24;;;;;;;27.13;9.18;;;;;;;16.11;68.23;101558.69;5069243;28;20029;-74
2023/07/06 05:54:49;;;;;;;20.90;8.60;;;;;;;16.11;68.72;101555.91;5064750;28;20530;-75
2023/07/06 05:57:17;;;;;;;16.60;7.63;;;;;;;16.16;68.20;101555.06;5065430;28;20036;-76
2023/07/06 05:59:43;;;;;;;19.17;8.13;;;;;;;16.13;68.28;101564.03;5057104;28;20029;-76
2023/07/06 06:02:12;;;;;;;19.63;8.30;;;;;;;16.19;68.59;101563.78;5049753;28;20483;-75
2023/07/06 06:04:39;;;;;;;23.02;8.50;;;;;;;16.18;68.65;101558.44;5063294;28;20582;-75
2023/07/06 06:07:06;;;;;;;22.05;8.85;;;;;;;16.24;68.54;101560.16;5054372;28;20480;-77
2023/07/06 06:09:33;;;;;;;20.75;8.52;;;;;;;16.35;68.35;101566.66;5066778;28;20468;-68
2023/07/06 06:11:58;;;;;;;23.10;8.85;;;;;;;16.41;68.30;101571.13;5058902;28;20558;-73
2023/07/06 06:14:24;;;;;;;18.70;9.43;;;;;;;16.47;67.96;101569.22;5049665;28;20132;-74
2023/07/06 06:16:50;;;;;;;16.75;8.25;;;;;;;16.56;67.87;101573.16;5059925;28;20204;-72
2023/07/06 06:19:16;;;;;;;16.98;8.45;;;;;;;16.63;67.61;101574.56;5063724;28;20028;-74
2023/07/06 06:21:41;;;;;;;18.42;8.18;;;;;;;16.62;67.97;101580.44;5063086;28;20111;-73
2023/07/06 06:24:08;;;;;;;17.63;8.20;;;;;;;16.64;67.79;101581.00;5052231;28;20094;-73
2023/07/06 06:26:35;;;;;;;16.45;8.25;;;;;;;16.62;68.03;101580.44;5059762;28;20377;-74
2023/07/06 06:29:00;;;;;;;18.05;8.57;;;;;;;16.69;67.95;101586.63;5060676;28;20498;-75
2023/07/06 06:31:27;;;;;;;17.45;9.43;;;;;;;16.71;68.14;101589.16;5062125;28;20036;-74
2023/07/06 06:33:53;;;;;;;18.27;9.00;;;;;;;16.74;68.22;101591.44;5063723;28;20480;-74
2023/07/06 06:36:19;;;;;;;19.25;8.73;;;;;;;16.76;68.23;101592.00;5051500;28;20128;-74
2023/07/06 06:38:44;;;;;;;19.77;9.20;;;;;;;16.78;67.95;101599.03;5049823;28;20389;-74
2023/07/06 06:41:11;;;;;;;26.90;10.00;;;;;;;16.80;68.01;101596.78;5048449;28;20381;-74
2023/07/06 06:43:38;;;;;;;23.45;9.50;;;;;;;16.80;68.16;101598.75;5055567;28;20110;-74
2023/07/06 06:46:05;;;;;;;20.75;9.65;;;;;;;16.83;68.31;101601.00;5052151;28;20016;-74
2023/07/06 06:48:31;;;;;;;22.17;10.23;;;;;;;16.87;68.29;101602.13;5071639;28;20396;-74
2023/07/06 06:50:56;;;;;;;20.63;10.60;;;;;;;16.85;68.58;101608.00;5065317;28;20025;-74
2023/07/06 06:53:22;;;;;;;25.85;10.88;;;;;;;16.88;68.50;101612.22;5072597;28;20031;-74
2023/07/06 06:55:48;;;;;;;17.83;10.75;;;;;;;16.95;68.25;101606.34;5072133;28;20033;-74
2023/07/06 06:58:15;;;;;;;24.50;11.10;;;;;;;16.93;68.52;101609.41;5073523;28;20039;-74
2023/07/06 07:00:41;;;;;;;21.33;10.52;;;;;;;16.93;68.57;101607.44;5073003;28;20047;-74
2023/07/06 07:03:11;;;;;;;23.00;10.80;;;;;;;16.91;68.26;101614.47;5071645;28;20529;-74
2023/07/06 07:05:37;;;;;;;26.25;10.93;;;;;;;16.93;68.31;101615.03;5068005;28;20134;-74
2023/07/06 07:08:03;;;;;;;18.02;10.07;;;;;;;16.95;68.67;101620.38;5072742;28;20479;-75
2023/07/06 07:10:29;;;;;;;19.75;10.25;;;;;;;16.96;68.44;101622.88;5072335;28;20036;-74
2023/07/06 07:12:55;;;;;;;23.60;10.30;;;;;;;17.00;68.48;101628.78;5072703;28;20025;-74
2023/07/06 07:15:20;;;;;;;22.98;11.65;;;;;;;16.96;68.92;101622.06;5072495;28;20400;-74
2023/07/06 07:17:45;;;;;;;18.50;11.85;;;;;;;16.95;68.82;101626.00;5085288;28;20459;-74
2023/07/06 07:20:13;;;;;;;22.33;11.73;;;;;;;16.95;69.21;101621.22;5092982;28;20035;-74
2023/07/06 07:22:39;;;;;;;23.52;11.52;;;;;;;16.98;68.86;101631.88;5066141;28;20036;-74
2023/07/06 07:25:05;;;;;;;22.42;11.68;;;;;;;17.00;68.88;101628.78;5051740;28;20029;-74
2023/07/06 07:27:34;;;;;;;24.05;11.73;;;;;;;17.01;68.78;101638.88;5052451;28;20374;-74
2023/07/06 07:30:00;;;;;;;25.30;11.65;;;;;;;17.05;68.89;101640.00;5051854;28;20032;-74
2023/07/06 07:32:28;;;;;;;21.20;11.15;;;;;;;17.04;69.48;101644.78;5065312;28;20033;-74
2023/07/06 07:34:53;;;;;;;16.15;10.43;;;;;;;17.10;69.21;101638.06;5072296;28;20031;-74
2023/07/06 07:37:19;;;;;;;21.38;10.50;;;;;;;17.14;68.95;101635.56;5071516;28;20028;-75
2023/07/06 07:39:45;;;;;;;21.10;11.10;;;;;;;17.21;68.78;101641.72;5071993;28;20037;-74
2023/07/06 07:42:12;;;;;;;18.33;10.80;;;;;;;17.20;69.01;101642.84;5072500;28;20032;-74
2023/07/06 07:44:38;;;;;;;19.20;11.48;;;;;;;17.26;68.37;101644.56;5071247;28;20045;-74
2023/07/06 07:47:04;;;;;;;25.05;11.27;;;;;;;17.37;68.59;101642.56;5086071;28;20407;-74
2023/07/06 07:49:29;;;;;;;21.70;11.38;;;;;;;17.51;68.66;101638.09;5084015;28;20033;-74
2023/07/06 07:51:56;;;;;;;21.52;11.60;;;;;;;17.53;67.69;101637.84;5054987;28;20024;-74
2023/07/06 07:54:22;;;;;;;23.02;12.15;;;;;;;17.55;67.66;101638.38;5051289;28;20033;-74
2023/07/06 07:56:48;;;;;;;22.15;12.50;;;;;;;17.49;67.89;101636.69;5070025;28;20033;-73
2023/07/06 07:59:15;;;;;;;18.77;11.90;;;;;;;17.60;68.16;101638.38;5075263;28;20024;-76
2023/07/06 08:01:42;;;;;;;19.75;10.50;;;;;;;17.65;68.12;101636.41;5065050;28;20586;-76
2023/07/06 08:04:08;;;;;;;16.58;11.25;;;;;;;17.69;67.68;101636.69;5066483;28;20045;-74
2023/07/06 08:06:34;;;;;;;19.52;10.70;;;;;;;17.84;66.07;101642.34;5066622;28;20017;-74
2023/07/06 08:09:03;;;;;;;17.13;11.15;;;;;;;17.88;67.29;101635.03;5087148;28;20081;-74
2023/07/06 08:11:28;;;;;;;22.27;12.30;;;;;;;17.94;67.45;101640.63;5092112;28;20032;-74
2023/07/06 08:13:56;;;;;;;19.17;11.30;;;;;;;18.00;67.69;101639.47;5090286;28;20077;-74
2023/07/06 08:16:23;;;;;;;21.60;12.40;;;;;;;18.03;67.70;101642.56;5091848;28;20183;-74
2023/07/06 08:18:49;;;;;;;18.63;11.02;;;;;;;18.17;66.95;101642.00;5088942;28;20387;-75
2023/07/06 08:21:15;;;;;;;22.05;10.57;;;;;;;18.19;66.45;101643.38;5080120;28;20024;-74
2023/07/06 08:23:49;;;;;;;23.30;10.38;;;;;;;18.21;66.51;101649.56;5085465;28;20103;-74
2023/07/06 08:26:15;;;;;;;18.55;10.38;;;;;;;18.34;65.96;101648.09;5053786;28;20028;-74
2023/07/06 08:28:41;;;;;;;16.05;9.38;;;;;;;18.49;66.18;101653.69;5057331;28;20035;-74
2023/07/06 08:31:14;;;;;;;21.73;10.95;;;;;;;18.55;66.27;101649.72;5090688;28;20210;-74
2023/07/06 08:33:39;;;;;;;20.10;9.88;;;;;;;18.56;65.43;101654.22;5090374;28;20020;-74
2023/07/06 08:36:06;;;;;;;17.13;10.73;;;;;;;18.48;64.48;101649.19;5091746;28;20091;-74
2023/07/06 08:38:32;;;;;;;17.42;9.35;;;;;;;18.65;64.66;101654.44;5090968;28;20024;-74
2023/07/06 08:41:03;;;;;;;20.77;9.38;;;;;;;18.78;64.51;101651.03;5084580;28;20033;-74
2023/07/06 08:43:31;;;;;;;18.48;10.15;;;;;;;18.75;63.47;101659.25;5052803;28;20040;-74
2023/07/06 08:46:00;;;;;;;17.83;8.60;;;;;;;18.87;64.08;101669.00;5086442;28;20173;-75
2023/07/06 08:48:27;;;;;;;15.13;7.95;;;;;;;18.96;63.43;101665.59;5090515;28;20053;-74
2023/07/06 08:50:57;;;;;;;17.35;8.70;;;;;;;19.07;63.54;101664.41;5088112;28;20048;-74
2023/07/06 08:53:28;;;;;;;17.65;8.68;;;;;;;19.09;62.20;101667.75;5091227;28;20414;-74
2023/07/06 08:55:57;;;;;;;15.57;7.82;;;;;;;19.13;62.81;101668.84;5087385;28;20024;-74
2023/07/06 08:58:32;;;;;;;15.23;8.18;;;;;;;19.04;61.71;101671.44;5073477;28;20033;-74
2023/07/06 09:01:10;;;;;;;13.75;7.68;;;;;;;19.12;62.71;101678.44;5050225;28;20029;-74
2023/07/06 09:03:43;;;;;;;14.10;7.05;;;;;;;19.16;62.47;101678.69;5050104;28;20033;-74
2023/07/06 09:06:12;;;;;;;12.23;6.10;;;;;;;19.14;61.42;101679.00;5050844;28;20052;-74
2023/07/06 09:08:40;;;;;;;12.68;7.10;;;;;;;19.08;61.87;101680.16;5049397;28;20469;-75
2023/07/06 09:11:07;;;;;;;14.68;6.97;;;;;;;19.06;61.48;101682.41;5050428;28;20100;-75
2023/07/06 09:13:43;;;;;;;12.68;6.15;;;;;;;19.11;61.46;101682.38;5064895;28;20043;-74
2023/07/06 09:16:10;;;;;;;14.48;6.70;;;;;;;19.12;61.97;101681.25;5052088;28;20069;-74
2023/07/06 09:18:36;;;;;;;15.38;6.40;;;;;;;19.16;62.07;101679.53;5069930;28;20032;-74
2023/07/06 09:21:02;;;;;;;11.60;5.28;;;;;;;19.24;61.70;101680.88;5070806;28;20025;-74
2023/07/06 09:23:28;;;;;;;13.45;5.38;;;;;;;19.29;61.42;101673.25;5069793;28;20123;-74
2023/07/06 09:25:54;;;;;;;11.60;4.70;;;;;;;19.29;60.62;101686.47;5070305;28;20453;-74
2023/07/06 09:28:29;;;;;;;10.70;4.60;;;;;;;19.31;61.08;101678.59;5069658;28;20029;-74
2023/07/06 09:31:26;;;;;;;9.88;5.10;;;;;;;19.44;60.77;101682.72;5049721;28;20111;-74
2023/07/06 09:33:53;;;;;;;14.35;5.03;;;;;;;19.34;59.87;101680.84;5052703;28;20044;-74
2023/07/06 09:36:25;;;;;;;9.27;4.40;;;;;;;19.37;60.31;101672.66;5050065;28;20507;-74
2023/07/06 09:38:51;;;;;;;;;;;;;;;19.52;60.81;101684.91;5048310;28;20025;-74
2023/07/06 09:41:20;;;;;;;15.23;4.90;;;;;;;19.44;58.73;101680.75;5081322;28;19961;-74
2023/07/06 09:43:46;;;;;;;12.20;4.15;;;;;;;19.56;59.86;101680.38;5089615;28;20531;-74
2023/07/06 09:46:14;;;;;;;9.80;5.15;;;;;;;19.59;59.03;101683.44;5088163;28;20022;-75
2023/07/06 09:48:40;;;;;;;11.75;3.88;;;;;;;19.68;58.80;101682.84;5068895;28;20395;-74
2023/07/06 09:51:17;;;;;;;9.10;3.42;;;;;;;19.69;57.77;101687.34;5069422;28;20025;-74
2023/07/06 09:53:58;;;;;;;6.47;3.17;;;;;;;19.81;58.42;101680.22;5069665;28;20059;-74
2023/07/06 09:56:24;;;;;;;8.18;3.33;;;;;;;19.79;57.58;101685.28;5065756;28;20028;-74
2023/07/06 09:58:51;;;;;;;9.30;3.47;;;;;;;19.89;57.75;101684.38;5066766;28;20051;-74
2023/07/06 10:01:42;;;;;;;9.57;3.38;;;;;;;19.89;57.64;101683.53;5074543;28;20025;-75
2023/07/06 10:04:17;;;;;;;7.82;2.97;;;;;;;19.83;56.26;101683.56;5070158;28;20037;-74
2023/07/06 10:07:05;;;;;;;11.55;3.50;;;;;;;19.82;57.61;101684.69;5070616;28;20028;-75
2023/07/06 10:09:40;;;;;;;7.00;2.88;;;;;;;19.87;56.09;101681.00;5089943;28;20115;-75
2023/07/06 10:12:38;;;;;;;8.32;2.72;;;;;;;19.94;56.60;101678.69;5089493;28;20017;-75
2023/07/06 10:15:25;;;;;;;7.18;2.58;;;;;;;20.10;54.98;101677.38;5054101;28;20132;-74
2023/07/06 10:18:02;;;;;;;8.05;3.08;;;;;;;20.21;54.98;101680.94;5060999;28;20032;-75
2023/07/06 10:21:13;;;;;;;9.70;3.20;;;;;;;20.33;54.53;101678.56;5069607;28;20074;-74
2023/07/06 10:23:57;;;;;;;8.63;2.70;;;;;;;20.39;53.97;101675.66;5034939;28;20041;-75
2023/07/06 10:26:33;;;;;;;6.38;2.75;;;;;;;20.31;54.17;101680.81;5030272;28;20136;-75
2023/07/06 10:29:05;;;;;;;5.40;2.80;;;;;;;20.21;54.06;101671.66;5054048;28;20033;-76
2023/07/06 10:31:42;;;;;;;5.93;2.45;;;;;;;20.18;53.90;101672.25;5054655;28;20031;-74
2023/07/06 10:34:38;;;;;;;9.23;3.05;;;;;;;20.16;54.49;101672.56;5058977;28;20100;-74
2023/07/06 10:37:05;;;;;;;8.43;2.53;;;;;;;20.30;54.92;101670.69;5060438;28;20048;-73
2023/07/06 10:39:30;;;;;;;5.28;2.60;;;;;;;20.38;54.41;101669.19;5072364;28;20472;-75
2023/07/06 10:42:01;;;;;;;8.15;2.65;;;;;;;20.42;53.16;101663.78;5070530;28;20107;-71
2023/07/06 10:44:43;;;;;;;8.93;2.67;;;;;;;20.52;53.07;101675.00;5072160;28;20089;-75
2023/07/06 10:47:28;;;;;;;;;;;;;;;20.60;54.30;101665.88;5053640;28;20109;-74
2023/07/06 10:50:06;;;;;;;4.55;2.03;;;;;;;20.71;52.88;101667.44;5074496;28;19925;-73
2023/07/06 10:53:01;;;;;;;6.53;2.35;;;;;;;20.68;52.50;101676.47;5071518;28;20043;-75
2023/07/06 10:56:10;;;;;;;7.00;2.30;;;;;;;20.75;52.62;101678.91;5067277;28;20051;-75
2023/07/06 10:58:44;;;;;;;6.07;2.53;;;;;;;20.87;50.55;101670.03;5056861;28;20037;-75
2023/07/06 11:01:10;;;;;;;4.40;1.88;;;;;;;20.96;49.94;101676.69;5072682;28;20025;-75
2023/07/06 11:03:37;;;;;;;5.68;2.20;;;;;;;20.87;48.93;101681.31;5062721;28;20542;-75
2023/07/06 11:06:10;;;;;;;4.97;2.00;;;;;;;20.79;49.95;101680.03;5064027;28;20032;-76
2023/07/06 11:08:58;;;;;;;4.55;2.10;;;;;;;20.67;50.86;101683.28;5067171;28;20036;-75
2023/07/06 11:11:27;;;;;;;5.35;2.13;;;;;;;20.63;49.55;101679.34;5062587;28;20353;-73
2023/07/06 11:13:53;;;;;;;6.72;2.33;;;;;;;20.58;49.43;101685.91;5063376;28;20044;-75
2023/07/06 11:16:47;;;;;;;5.28;2.10;;;;;;;20.58;50.48;101691.53;5052409;28;20174;-74
2023/07/06 11:19:19;;;;;;;4.90;2.17;;;;;;;20.60;49.94;101688.44;5053218;28;20029;-74
2023/07/06 11:21:50;;;;;;;4.18;2.20;;;;;;;20.71;50.44;101687.16;5051906;28;20064;-74
2023/07/06 11:24:21;;;;;;;6.75;2.20;;;;;;;20.77;50.46;101685.94;5050924;28;20037;-74
2023/07/06 11:26:51;;;;;;;5.65;2.28;;;;;;;20.81;50.90;101691.84;5055715;28;20029;-75
2023/07/06 11:29:22;;;;;;;7.07;2.42;;;;;;;20.76;50.44;101687.09;5070697;28;20027;-75
2023/07/06 11:32:03;;;;;;;6.25;2.55;;;;;;;20.74;51.06;101697.84;5083543;28;20128;-74